sensor_id;sensor_type;location;lat;lon;timestamp;P1;durP1;ratioP1;P2;durP2;ratioP2
67272;SDS011;54190;49.770;9.250;2022-10-17T00:00:50;6.90;;;4.33;;
67272;SDS011;54190;49.770;9.250;2022-10-17T00:03:16;5.83;;;4.10;;
67272;SDS011;54190;49.770;9.250;2022-10-17T00:05:43;5.10;;;3.70;;
67272;SDS011;54190;49.770;9.250;2022-10-17T00:08:10;5.53;;;4.17;;
67272;SDS011;54190;49.770;9.250;2022-10-17T00:10:38;5.40;;;3.73;;
67272;SDS011;54190;49.770;9.250;2022-10-17T00:13:04;6.60;;;3.80;;
67272;SDS011;54190;49.770;9.250;2022-10-17T00:15:31;9.10;;;4.03;;
67272;SDS011;54190;49.770;9.250;2022-10-17T00:17:57;5.17;;;4.10;;
67272;SDS011;54190;49.770;9.250;2022-10-17T00:20:24;5.13;;;3.40;;
67272;SDS011;54190;49.770;9.250;2022-10-17T00:22:50;5.93;;;3.17;;
67272;SDS011;54190;49.770;9.250;2022-10-17T00:25:16;6.40;;;3.80;;
67272;SDS011;54190;49.770;9.250;2022-10-17T00:27:42;5.60;;;3.93;;
67272;SDS011;54190;49.770;9.250;2022-10-17T00:30:10;4.93;;;3.37;;
67272;SDS011;54190;49.770;9.250;2022-10-17T00:32:37;11.17;;;3.73;;
67272;SDS011;54190;49.770;9.250;2022-10-17T00:35:03;8.00;;;3.50;;
67272;SDS011;54190;49.770;9.250;2022-10-17T00:37:30;6.10;;;3.53;;
67272;SDS011;54190;49.770;9.250;2022-10-17T00:39:56;8.83;;;3.40;;
67272;SDS011;54190;49.770;9.250;2022-10-17T00:42:22;6.03;;;3.23;;
67272;SDS011;54190;49.770;9.250;2022-10-17T00:47:18;4.30;;;3.13;;
67272;SDS011;54190;49.770;9.250;2022-10-17T00:49:45;6.83;;;3.50;;
67272;SDS011;54190;49.770;9.250;2022-10-17T00:52:22;5.83;;;3.27;;
67272;SDS011;54190;49.770;9.250;2022-10-17T00:54:54;4.57;;;3.70;;
67272;SDS011;54190;49.770;9.250;2022-10-17T00:57:23;3.87;;;3.00;;
67272;SDS011;54190;49.770;9.250;2022-10-17T00:59:50;6.00;;;3.37;;
67272;SDS011;54190;49.770;9.250;2022-10-17T01:02:19;5.10;;;3.53;;
67272;SDS011;54190;49.770;9.250;2022-10-17T01:04:47;7.60;;;3.20;;
67272;SDS011;54190;49.770;9.250;2022-10-17T01:07:14;7.57;;;3.13;;
67272;SDS011;54190;49.770;9.250;2022-10-17T01:09:40;5.37;;;2.87;;
67272;SDS011;54190;49.770;9.250;2022-10-17T01:12:22;5.73;;;3.10;;
67272;SDS011;54190;49.770;9.250;2022-10-17T01:34:30;4.67;;;3.40;;
67272;SDS011;54190;49.770;9.250;2022-10-17T01:37:03;8.03;;;3.07;;
67272;SDS011;54190;49.770;9.250;2022-10-17T01:39:43;5.03;;;2.63;;
67272;SDS011;54190;49.770;9.250;2022-10-17T01:47:22;14.03;;;3.43;;
67272;SDS011;54190;49.770;9.250;2022-10-17T01:49:52;41.33;;;4.63;;
67272;SDS011;54190;49.770;9.250;2022-10-17T01:52:22;106.97;;;7.70;;
67272;SDS011;54190;49.770;9.250;2022-10-17T01:57:40;37.23;;;4.00;;
67272;SDS011;54190;49.770;9.250;2022-10-17T02:00:12;11.80;;;4.27;;
67272;SDS011;54190;49.770;9.250;2022-10-17T02:02:41;75.77;;;5.63;;
67272;SDS011;54190;49.770;9.250;2022-10-17T02:05:09;89.10;;;6.10;;
67272;SDS011;54190;49.770;9.250;2022-10-17T02:07:36;82.70;;;6.07;;
67272;SDS011;54190;49.770;9.250;2022-10-17T02:10:03;13.40;;;3.50;;
67272;SDS011;54190;49.770;9.250;2022-10-17T02:15:19;43.50;;;4.47;;
67272;SDS011;54190;49.770;9.250;2022-10-17T02:21:02;22.13;;;3.00;;
67272;SDS011;54190;49.770;9.250;2022-10-17T02:23:37;32.30;;;4.07;;
67272;SDS011;54190;49.770;9.250;2022-10-17T02:28:56;42.87;;;3.90;;
67272;SDS011;54190;49.770;9.250;2022-10-17T02:31:30;12.13;;;3.20;;
67272;SDS011;54190;49.770;9.250;2022-10-17T02:34:10;60.93;;;5.10;;
67272;SDS011;54190;49.770;9.250;2022-10-17T02:36:43;13.33;;;3.03;;
67272;SDS011;54190;49.770;9.250;2022-10-17T02:39:11;5.50;;;2.77;;
67272;SDS011;54190;49.770;9.250;2022-10-17T02:41:39;7.53;;;2.90;;
67272;SDS011;54190;49.770;9.250;2022-10-17T02:44:06;7.83;;;2.73;;
67272;SDS011;54190;49.770;9.250;2022-10-17T02:46:33;15.10;;;2.80;;
67272;SDS011;54190;49.770;9.250;2022-10-17T02:49:09;9.10;;;2.63;;
67272;SDS011;54190;49.770;9.250;2022-10-17T02:51:46;15.37;;;3.10;;
67272;SDS011;54190;49.770;9.250;2022-10-17T02:56:58;11.50;;;3.00;;
67272;SDS011;54190;49.770;9.250;2022-10-17T02:59:31;7.90;;;2.63;;
67272;SDS011;54190;49.770;9.250;2022-10-17T03:02:03;6.00;;;2.57;;
67272;SDS011;54190;49.770;9.250;2022-10-17T03:04:30;5.03;;;2.30;;
67272;SDS011;54190;49.770;9.250;2022-10-17T03:06:56;6.60;;;2.50;;
67272;SDS011;54190;49.770;9.250;2022-10-17T03:09:22;5.80;;;2.70;;
67272;SDS011;54190;49.770;9.250;2022-10-17T03:11:49;9.80;;;2.60;;
67272;SDS011;54190;49.770;9.250;2022-10-17T03:14:15;3.83;;;2.80;;
67272;SDS011;54190;49.770;9.250;2022-10-17T03:16:41;8.43;;;2.20;;
67272;SDS011;54190;49.770;9.250;2022-10-17T03:19:06;3.47;;;2.57;;
67272;SDS011;54190;49.770;9.250;2022-10-17T03:21:33;3.33;;;2.30;;
67272;SDS011;54190;49.770;9.250;2022-10-17T03:24:01;10.00;;;2.73;;
67272;SDS011;54190;49.770;9.250;2022-10-17T03:26:27;9.20;;;2.50;;
67272;SDS011;54190;49.770;9.250;2022-10-17T03:28:54;2.90;;;2.30;;
67272;SDS011;54190;49.770;9.250;2022-10-17T03:31:21;3.67;;;2.73;;
67272;SDS011;54190;49.770;9.250;2022-10-17T03:33:48;6.83;;;2.93;;
67272;SDS011;54190;49.770;9.250;2022-10-17T03:36:16;4.40;;;2.90;;
67272;SDS011;54190;49.770;9.250;2022-10-17T03:38:43;4.80;;;3.00;;
67272;SDS011;54190;49.770;9.250;2022-10-17T03:41:10;7.93;;;3.10;;
67272;SDS011;54190;49.770;9.250;2022-10-17T03:43:37;11.80;;;2.83;;
67272;SDS011;54190;49.770;9.250;2022-10-17T03:46:04;9.57;;;3.30;;
67272;SDS011;54190;49.770;9.250;2022-10-17T03:48:33;6.50;;;3.27;;
67272;SDS011;54190;49.770;9.250;2022-10-17T03:51:03;14.23;;;3.57;;
67272;SDS011;54190;49.770;9.250;2022-10-17T03:53:33;23.43;;;3.80;;
67272;SDS011;54190;49.770;9.250;2022-10-17T03:56:12;8.37;;;3.57;;
67272;SDS011;54190;49.770;9.250;2022-10-17T03:58:47;6.40;;;3.10;;
67272;SDS011;54190;49.770;9.250;2022-10-17T04:01:15;15.80;;;3.27;;
67272;SDS011;54190;49.770;9.250;2022-10-17T04:03:41;61.53;;;5.27;;
67272;SDS011;54190;49.770;9.250;2022-10-17T04:06:08;11.47;;;3.83;;
67272;SDS011;54190;49.770;9.250;2022-10-17T04:08:37;17.00;;;3.70;;
67272;SDS011;54190;49.770;9.250;2022-10-17T04:11:08;30.83;;;4.27;;
67272;SDS011;54190;49.770;9.250;2022-10-17T04:13:38;10.87;;;3.07;;
67272;SDS011;54190;49.770;9.250;2022-10-17T04:16:05;40.83;;;4.13;;
67272;SDS011;54190;49.770;9.250;2022-10-17T04:18:39;9.90;;;3.00;;
67272;SDS011;54190;49.770;9.250;2022-10-17T04:21:05;30.70;;;3.57;;
67272;SDS011;54190;49.770;9.250;2022-10-17T04:23:31;19.57;;;3.47;;
67272;SDS011;54190;49.770;9.250;2022-10-17T04:26:04;73.07;;;5.60;;
67272;SDS011;54190;49.770;9.250;2022-10-17T04:28:31;40.80;;;3.77;;
67272;SDS011;54190;49.770;9.250;2022-10-17T04:31:02;52.13;;;4.90;;
67272;SDS011;54190;49.770;9.250;2022-10-17T04:33:35;58.50;;;5.00;;
67272;SDS011;54190;49.770;9.250;2022-10-17T04:36:02;14.13;;;2.80;;
67272;SDS011;54190;49.770;9.250;2022-10-17T04:38:30;46.40;;;4.83;;
67272;SDS011;54190;49.770;9.250;2022-10-17T04:40:57;96.60;;;6.57;;
67272;SDS011;54190;49.770;9.250;2022-10-17T04:43:31;14.73;;;6.70;;
67272;SDS011;54190;49.770;9.250;2022-10-17T04:45:59;12.20;;;8.13;;
67272;SDS011;54190;49.770;9.250;2022-10-17T04:48:26;43.43;;;8.90;;
67272;SDS011;54190;49.770;9.250;2022-10-17T04:50:53;133.40;;;9.77;;
67272;SDS011;54190;49.770;9.250;2022-10-17T04:53:32;30.80;;;6.23;;
67272;SDS011;54190;49.770;9.250;2022-10-17T04:56:00;15.93;;;6.60;;
67272;SDS011;54190;49.770;9.250;2022-10-17T04:58:27;64.93;;;9.10;;
67272;SDS011;54190;49.770;9.250;2022-10-17T05:00:54;77.17;;;9.20;;
67272;SDS011;54190;49.770;9.250;2022-10-17T05:03:24;12.63;;;6.60;;
67272;SDS011;54190;49.770;9.250;2022-10-17T05:05:50;210.57;;;16.33;;
67272;SDS011;54190;49.770;9.250;2022-10-17T05:08:16;134.87;;;11.20;;
67272;SDS011;54190;49.770;9.250;2022-10-17T05:10:43;317.43;;;16.07;;
67272;SDS011;54190;49.770;9.250;2022-10-17T05:13:10;224.07;;;11.73;;
67272;SDS011;54190;49.770;9.250;2022-10-17T05:15:36;160.37;;;11.30;;
67272;SDS011;54190;49.770;9.250;2022-10-17T05:18:03;29.57;;;6.03;;
67272;SDS011;54190;49.770;9.250;2022-10-17T05:20:30;303.63;;;14.80;;
67272;SDS011;54190;49.770;9.250;2022-10-17T05:22:57;217.47;;;13.90;;
67272;SDS011;54190;49.770;9.250;2022-10-17T05:25:27;166.67;;;11.53;;
67272;SDS011;54190;49.770;9.250;2022-10-17T05:27:53;215.00;;;12.17;;
67272;SDS011;54190;49.770;9.250;2022-10-17T05:30:19;184.87;;;12.10;;
67272;SDS011;54190;49.770;9.250;2022-10-17T05:32:50;40.40;;;5.90;;
67272;SDS011;54190;49.770;9.250;2022-10-17T05:35:18;52.00;;;5.67;;
67272;SDS011;54190;49.770;9.250;2022-10-17T05:37:45;193.63;;;11.63;;
67272;SDS011;54190;49.770;9.250;2022-10-17T05:40:10;262.93;;;13.93;;
67272;SDS011;54190;49.770;9.250;2022-10-17T05:42:36;280.30;;;15.70;;
67272;SDS011;54190;49.770;9.250;2022-10-17T05:45:02;197.53;;;12.30;;
67272;SDS011;54190;49.770;9.250;2022-10-17T05:47:29;135.17;;;9.70;;
67272;SDS011;54190;49.770;9.250;2022-10-17T05:49:54;18.10;;;4.57;;
67272;SDS011;54190;49.770;9.250;2022-10-17T05:52:27;59.37;;;6.80;;
67272;SDS011;54190;49.770;9.250;2022-10-17T05:55:01;187.23;;;11.73;;
67272;SDS011;54190;49.770;9.250;2022-10-17T05:57:28;257.40;;;27.00;;
67272;SDS011;54190;49.770;9.250;2022-10-17T05:59:55;267.13;;;16.50;;
67272;SDS011;54190;49.770;9.250;2022-10-17T06:02:21;343.13;;;15.90;;
67272;SDS011;54190;49.770;9.250;2022-10-17T06:04:46;359.80;;;17.47;;
67272;SDS011;54190;49.770;9.250;2022-10-17T06:07:17;392.93;;;36.97;;
67272;SDS011;54190;49.770;9.250;2022-10-17T06:09:43;114.23;;;10.13;;
67272;SDS011;54190;49.770;9.250;2022-10-17T06:12:09;302.43;;;19.17;;
67272;SDS011;54190;49.770;9.250;2022-10-17T06:14:35;326.80;;;17.20;;
67272;SDS011;54190;49.770;9.250;2022-10-17T06:17:02;260.60;;;21.10;;
67272;SDS011;54190;49.770;9.250;2022-10-17T06:19:28;104.13;;;11.20;;
67272;SDS011;54190;49.770;9.250;2022-10-17T06:21:54;115.30;;;15.83;;
67272;SDS011;54190;49.770;9.250;2022-10-17T06:24:21;167.47;;;16.60;;
67272;SDS011;54190;49.770;9.250;2022-10-17T06:26:49;13.57;;;8.63;;
67272;SDS011;54190;49.770;9.250;2022-10-17T06:29:17;148.37;;;14.53;;
67272;SDS011;54190;49.770;9.250;2022-10-17T06:31:48;39.37;;;6.67;;
67272;SDS011;54190;49.770;9.250;2022-10-17T06:34:14;10.13;;;4.37;;
67272;SDS011;54190;49.770;9.250;2022-10-17T06:36:40;45.47;;;8.20;;
67272;SDS011;54190;49.770;9.250;2022-10-17T06:39:07;40.73;;;7.70;;
67272;SDS011;54190;49.770;9.250;2022-10-17T06:41:38;37.53;;;5.80;;
67272;SDS011;54190;49.770;9.250;2022-10-17T06:44:06;16.03;;;4.93;;
67272;SDS011;54190;49.770;9.250;2022-10-17T06:47:04;212.70;;;11.37;;
67272;SDS011;54190;49.770;9.250;2022-10-17T06:49:30;89.47;;;7.30;;
67272;SDS011;54190;49.770;9.250;2022-10-17T06:52:22;149.27;;;8.40;;
67272;SDS011;54190;49.770;9.250;2022-10-17T06:55:08;84.57;;;6.47;;
67272;SDS011;54190;49.770;9.250;2022-10-17T06:57:48;39.43;;;4.93;;
67272;SDS011;54190;49.770;9.250;2022-10-17T07:00:36;16.70;;;4.20;;
67272;SDS011;54190;49.770;9.250;2022-10-17T07:03:02;8.27;;;3.93;;
67272;SDS011;54190;49.770;9.250;2022-10-17T07:05:28;17.73;;;4.23;;
67272;SDS011;54190;49.770;9.250;2022-10-17T07:07:53;22.50;;;4.70;;
67272;SDS011;54190;49.770;9.250;2022-10-17T07:10:19;15.80;;;3.97;;
67272;SDS011;54190;49.770;9.250;2022-10-17T07:12:46;16.70;;;3.77;;
67272;SDS011;54190;49.770;9.250;2022-10-17T07:15:11;10.40;;;3.80;;
67272;SDS011;54190;49.770;9.250;2022-10-17T07:17:38;20.53;;;3.90;;
67272;SDS011;54190;49.770;9.250;2022-10-17T07:20:04;14.00;;;4.40;;
67272;SDS011;54190;49.770;9.250;2022-10-17T07:22:32;33.37;;;5.60;;
67272;SDS011;54190;49.770;9.250;2022-10-17T07:24:58;34.73;;;5.27;;
67272;SDS011;54190;49.770;9.250;2022-10-17T07:27:40;17.43;;;4.77;;
67272;SDS011;54190;49.770;9.250;2022-10-17T07:30:06;10.50;;;4.80;;
67272;SDS011;54190;49.770;9.250;2022-10-17T07:32:36;85.70;;;8.47;;
67272;SDS011;54190;49.770;9.250;2022-10-17T07:35:03;27.63;;;6.00;;
67272;SDS011;54190;49.770;9.250;2022-10-17T07:37:28;11.13;;;5.20;;
67272;SDS011;54190;49.770;9.250;2022-10-17T07:39:55;69.30;;;6.80;;
67272;SDS011;54190;49.770;9.250;2022-10-17T07:42:21;109.30;;;8.63;;
67272;SDS011;54190;49.770;9.250;2022-10-17T07:44:48;50.17;;;6.67;;
67272;SDS011;54190;49.770;9.250;2022-10-17T07:47:14;47.00;;;6.60;;
67272;SDS011;54190;49.770;9.250;2022-10-17T07:49:40;36.43;;;6.70;;
67272;SDS011;54190;49.770;9.250;2022-10-17T07:52:12;70.60;;;7.67;;
67272;SDS011;54190;49.770;9.250;2022-10-17T07:54:38;61.83;;;7.50;;
67272;SDS011;54190;49.770;9.250;2022-10-17T07:57:04;33.33;;;6.10;;
67272;SDS011;54190;49.770;9.250;2022-10-17T07:59:33;7.83;;;4.53;;
67272;SDS011;54190;49.770;9.250;2022-10-17T08:02:02;71.80;;;8.53;;
67272;SDS011;54190;49.770;9.250;2022-10-17T08:04:28;189.47;;;12.80;;
67272;SDS011;54190;49.770;9.250;2022-10-17T08:06:54;97.07;;;9.10;;
67272;SDS011;54190;49.770;9.250;2022-10-17T08:09:20;11.40;;;5.13;;
67272;SDS011;54190;49.770;9.250;2022-10-17T08:11:46;27.80;;;5.80;;
67272;SDS011;54190;49.770;9.250;2022-10-17T08:14:12;8.80;;;5.23;;
67272;SDS011;54190;49.770;9.250;2022-10-17T08:16:38;6.70;;;5.87;;
67272;SDS011;54190;49.770;9.250;2022-10-17T08:19:04;9.53;;;5.43;;
67272;SDS011;54190;49.770;9.250;2022-10-17T08:21:32;18.77;;;6.00;;
67272;SDS011;54190;49.770;9.250;2022-10-17T08:23:58;7.17;;;5.07;;
67272;SDS011;54190;49.770;9.250;2022-10-17T08:26:27;11.13;;;6.73;;
67272;SDS011;54190;49.770;9.250;2022-10-17T08:28:53;9.97;;;6.03;;
67272;SDS011;54190;49.770;9.250;2022-10-17T08:31:19;16.87;;;6.23;;
67272;SDS011;54190;49.770;9.250;2022-10-17T08:33:46;67.57;;;8.30;;
67272;SDS011;54190;49.770;9.250;2022-10-17T08:36:13;27.17;;;7.10;;
67272;SDS011;54190;49.770;9.250;2022-10-17T08:38:41;10.63;;;6.07;;
67272;SDS011;54190;49.770;9.250;2022-10-17T08:41:19;8.30;;;6.20;;
67272;SDS011;54190;49.770;9.250;2022-10-17T08:46:34;7.20;;;5.80;;
67272;SDS011;54190;49.770;9.250;2022-10-17T08:49:03;6.80;;;5.80;;
67272;SDS011;54190;49.770;9.250;2022-10-17T08:51:36;10.93;;;5.47;;
67272;SDS011;54190;49.770;9.250;2022-10-17T08:54:15;7.97;;;5.67;;
67272;SDS011;54190;49.770;9.250;2022-10-17T08:56:48;6.50;;;4.90;;
67272;SDS011;54190;49.770;9.250;2022-10-17T08:59:19;6.70;;;5.10;;
67272;SDS011;54190;49.770;9.250;2022-10-17T09:01:58;5.77;;;4.53;;
67272;SDS011;54190;49.770;9.250;2022-10-17T09:07:28;7.93;;;4.87;;
67272;SDS011;54190;49.770;9.250;2022-10-17T09:13:47;5.37;;;4.50;;
67272;SDS011;54190;49.770;9.250;2022-10-17T09:18:57;8.10;;;4.77;;
67272;SDS011;54190;49.770;9.250;2022-10-17T09:23:54;8.23;;;4.00;;
67272;SDS011;54190;49.770;9.250;2022-10-17T09:26:23;6.00;;;4.33;;
67272;SDS011;54190;49.770;9.250;2022-10-17T09:28:53;8.23;;;5.00;;
67272;SDS011;54190;49.770;9.250;2022-10-17T09:31:28;6.70;;;4.13;;
67272;SDS011;54190;49.770;9.250;2022-10-17T09:33:59;6.60;;;4.10;;
67272;SDS011;54190;49.770;9.250;2022-10-17T09:36:31;12.33;;;4.27;;
67272;SDS011;54190;49.770;9.250;2022-10-17T09:38:59;6.43;;;4.33;;
67272;SDS011;54190;49.770;9.250;2022-10-17T09:41:36;7.87;;;4.23;;
67272;SDS011;54190;49.770;9.250;2022-10-17T09:44:11;8.33;;;3.90;;
67272;SDS011;54190;49.770;9.250;2022-10-17T09:46:38;8.23;;;3.73;;
67272;SDS011;54190;49.770;9.250;2022-10-17T09:49:05;9.07;;;3.97;;
67272;SDS011;54190;49.770;9.250;2022-10-17T09:51:38;6.10;;;3.70;;
67272;SDS011;54190;49.770;9.250;2022-10-17T09:54:10;6.30;;;3.80;;
67272;SDS011;54190;49.770;9.250;2022-10-17T09:56:55;4.87;;;4.03;;
67272;SDS011;54190;49.770;9.250;2022-10-17T09:59:57;6.00;;;4.00;;
67272;SDS011;54190;49.770;9.250;2022-10-17T10:02:22;5.33;;;3.73;;
67272;SDS011;54190;49.770;9.250;2022-10-17T10:05:03;6.70;;;3.67;;
67272;SDS011;54190;49.770;9.250;2022-10-17T10:07:38;4.90;;;3.70;;
67272;SDS011;54190;49.770;9.250;2022-10-17T10:10:07;7.47;;;3.90;;
67272;SDS011;54190;49.770;9.250;2022-10-17T10:13:00;6.77;;;3.60;;
67272;SDS011;54190;49.770;9.250;2022-10-17T10:15:40;7.03;;;3.60;;
67272;SDS011;54190;49.770;9.250;2022-10-17T10:23:33;5.20;;;3.30;;
67272;SDS011;54190;49.770;9.250;2022-10-17T10:26:05;5.03;;;3.50;;
67272;SDS011;54190;49.770;9.250;2022-10-17T10:28:49;9.97;;;3.57;;
67272;SDS011;54190;49.770;9.250;2022-10-17T10:31:32;4.90;;;3.13;;
67272;SDS011;54190;49.770;9.250;2022-10-17T10:34:02;13.40;;;3.90;;
67272;SDS011;54190;49.770;9.250;2022-10-17T10:36:46;8.50;;;3.50;;
67272;SDS011;54190;49.770;9.250;2022-10-17T10:39:25;5.73;;;3.40;;
67272;SDS011;54190;49.770;9.250;2022-10-17T10:41:52;7.10;;;3.20;;
67272;SDS011;54190;49.770;9.250;2022-10-17T10:44:24;6.30;;;3.20;;
67272;SDS011;54190;49.770;9.250;2022-10-17T10:49:49;7.90;;;3.40;;
67272;SDS011;54190;49.770;9.250;2022-10-17T10:52:26;5.80;;;3.33;;
67272;SDS011;54190;49.770;9.250;2022-10-17T10:54:59;4.70;;;3.07;;
67272;SDS011;54190;49.770;9.250;2022-10-17T10:57:38;5.63;;;3.07;;
67272;SDS011;54190;49.770;9.250;2022-10-17T11:00:09;6.50;;;3.30;;
67272;SDS011;54190;49.770;9.250;2022-10-17T11:05:15;7.97;;;3.13;;
67272;SDS011;54190;49.770;9.250;2022-10-17T11:14:12;5.00;;;3.17;;
67272;SDS011;54190;49.770;9.250;2022-10-17T11:19:23;6.73;;;3.40;;
67272;SDS011;54190;49.770;9.250;2022-10-17T11:24:53;7.40;;;3.63;;
67272;SDS011;54190;49.770;9.250;2022-10-17T11:27:27;5.70;;;3.13;;
67272;SDS011;54190;49.770;9.250;2022-10-17T11:29:54;8.90;;;3.43;;
67272;SDS011;54190;49.770;9.250;2022-10-17T11:35:23;11.00;;;3.47;;
67272;SDS011;54190;49.770;9.250;2022-10-17T11:38:01;8.57;;;3.13;;
67272;SDS011;54190;49.770;9.250;2022-10-17T11:40:49;6.50;;;3.20;;
67272;SDS011;54190;49.770;9.250;2022-10-17T11:43:22;6.57;;;3.00;;
67272;SDS011;54190;49.770;9.250;2022-10-17T11:45:57;6.73;;;3.43;;
67272;SDS011;54190;49.770;9.250;2022-10-17T11:48:31;8.17;;;2.83;;
67272;SDS011;54190;49.770;9.250;2022-10-17T11:51:12;7.30;;;2.83;;
67272;SDS011;54190;49.770;9.250;2022-10-17T11:54:00;6.60;;;3.00;;
67272;SDS011;54190;49.770;9.250;2022-10-17T12:03:33;10.40;;;3.30;;
67272;SDS011;54190;49.770;9.250;2022-10-17T12:13:45;4.20;;;2.73;;
67272;SDS011;54190;49.770;9.250;2022-10-17T12:18:44;5.90;;;2.57;;
67272;SDS011;54190;49.770;9.250;2022-10-17T12:21:11;4.10;;;2.20;;
67272;SDS011;54190;49.770;9.250;2022-10-17T12:23:37;4.90;;;2.27;;
67272;SDS011;54190;49.770;9.250;2022-10-17T12:26:06;5.87;;;2.50;;
67272;SDS011;54190;49.770;9.250;2022-10-17T12:33:57;6.50;;;2.60;;
67272;SDS011;54190;49.770;9.250;2022-10-17T12:57:29;4.00;;;2.43;;
67272;SDS011;54190;49.770;9.250;2022-10-17T13:02:46;4.60;;;2.30;;
67272;SDS011;54190;49.770;9.250;2022-10-17T13:05:24;5.17;;;2.80;;
67272;SDS011;54190;49.770;9.250;2022-10-17T13:07:59;3.70;;;2.40;;
67272;SDS011;54190;49.770;9.250;2022-10-17T13:10:28;9.13;;;2.80;;
67272;SDS011;54190;49.770;9.250;2022-10-17T13:13:04;9.60;;;2.57;;
67272;SDS011;54190;49.770;9.250;2022-10-17T13:15:37;5.73;;;2.70;;
67272;SDS011;54190;49.770;9.250;2022-10-17T13:18:03;4.20;;;2.57;;
67272;SDS011;54190;49.770;9.250;2022-10-17T13:20:29;4.40;;;2.83;;
67272;SDS011;54190;49.770;9.250;2022-10-17T13:22:59;3.70;;;2.40;;
67272;SDS011;54190;49.770;9.250;2022-10-17T13:25:25;6.37;;;2.40;;
67272;SDS011;54190;49.770;9.250;2022-10-17T13:28:02;5.33;;;2.70;;
67272;SDS011;54190;49.770;9.250;2022-10-17T13:30:33;5.90;;;2.50;;
67272;SDS011;54190;49.770;9.250;2022-10-17T13:33:00;5.10;;;2.60;;
67272;SDS011;54190;49.770;9.250;2022-10-17T13:35:34;5.77;;;2.50;;
67272;SDS011;54190;49.770;9.250;2022-10-17T13:38:03;9.20;;;2.77;;
67272;SDS011;54190;49.770;9.250;2022-10-17T13:40:37;7.27;;;3.07;;
67272;SDS011;54190;49.770;9.250;2022-10-17T13:43:08;3.70;;;2.60;;
67272;SDS011;54190;49.770;9.250;2022-10-17T13:45:43;4.00;;;2.50;;
67272;SDS011;54190;49.770;9.250;2022-10-17T13:48:22;5.90;;;2.97;;
67272;SDS011;54190;49.770;9.250;2022-10-17T13:50:50;6.43;;;2.80;;
67272;SDS011;54190;49.770;9.250;2022-10-17T14:01:17;9.70;;;3.00;;
67272;SDS011;54190;49.770;9.250;2022-10-17T14:03:44;5.80;;;2.73;;
67272;SDS011;54190;49.770;9.250;2022-10-17T14:08:37;7.27;;;2.77;;
67272;SDS011;54190;49.770;9.250;2022-10-17T14:13:58;8.30;;;4.20;;
67272;SDS011;54190;49.770;9.250;2022-10-17T14:16:26;7.97;;;3.00;;
67272;SDS011;54190;49.770;9.250;2022-10-17T14:19:03;5.63;;;2.80;;
67272;SDS011;54190;49.770;9.250;2022-10-17T14:21:30;5.30;;;2.90;;
67272;SDS011;54190;49.770;9.250;2022-10-17T14:29:30;3.87;;;2.80;;
67272;SDS011;54190;49.770;9.250;2022-10-17T14:32:04;7.13;;;3.40;;
67272;SDS011;54190;49.770;9.250;2022-10-17T14:34:33;9.93;;;3.10;;
67272;SDS011;54190;49.770;9.250;2022-10-17T14:37:07;8.80;;;3.43;;
67272;SDS011;54190;49.770;9.250;2022-10-17T14:39:48;10.03;;;3.83;;
67272;SDS011;54190;49.770;9.250;2022-10-17T14:42:18;5.60;;;3.00;;
67272;SDS011;54190;49.770;9.250;2022-10-17T14:44:47;4.53;;;2.70;;
67272;SDS011;54190;49.770;9.250;2022-10-17T14:47:19;4.47;;;2.77;;
67272;SDS011;54190;49.770;9.250;2022-10-17T14:49:49;5.23;;;3.10;;
67272;SDS011;54190;49.770;9.250;2022-10-17T14:52:26;8.10;;;3.10;;
67272;SDS011;54190;49.770;9.250;2022-10-17T14:54:53;8.10;;;3.37;;
67272;SDS011;54190;49.770;9.250;2022-10-17T14:57:24;5.77;;;3.27;;
67272;SDS011;54190;49.770;9.250;2022-10-17T14:59:56;6.57;;;3.10;;
67272;SDS011;54190;49.770;9.250;2022-10-17T15:02:23;5.80;;;3.30;;
67272;SDS011;54190;49.770;9.250;2022-10-17T15:04:49;5.70;;;3.30;;
67272;SDS011;54190;49.770;9.250;2022-10-17T15:07:16;4.33;;;3.30;;
67272;SDS011;54190;49.770;9.250;2022-10-17T15:09:42;4.00;;;2.63;;
67272;SDS011;54190;49.770;9.250;2022-10-17T15:12:13;4.40;;;3.23;;
67272;SDS011;54190;49.770;9.250;2022-10-17T15:14:41;8.27;;;3.70;;
67272;SDS011;54190;49.770;9.250;2022-10-17T15:17:40;5.40;;;2.90;;
67272;SDS011;54190;49.770;9.250;2022-10-17T15:19:59;10.23;;;4.13;;
67272;SDS011;54190;49.770;9.250;2022-10-17T15:22:25;7.03;;;3.23;;
67272;SDS011;54190;49.770;9.250;2022-10-17T15:24:51;9.37;;;3.63;;
67272;SDS011;54190;49.770;9.250;2022-10-17T15:27:17;5.43;;;3.47;;
67272;SDS011;54190;49.770;9.250;2022-10-17T15:29:45;5.50;;;3.20;;
67272;SDS011;54190;49.770;9.250;2022-10-17T15:32:11;7.63;;;3.40;;
67272;SDS011;54190;49.770;9.250;2022-10-17T15:34:37;8.90;;;3.23;;
67272;SDS011;54190;49.770;9.250;2022-10-17T15:37:03;8.00;;;3.87;;
67272;SDS011;54190;49.770;9.250;2022-10-17T15:39:29;6.43;;;3.47;;
67272;SDS011;54190;49.770;9.250;2022-10-17T15:41:55;9.07;;;3.27;;
67272;SDS011;54190;49.770;9.250;2022-10-17T15:44:22;7.83;;;3.10;;
67272;SDS011;54190;49.770;9.250;2022-10-17T15:46:47;8.10;;;3.80;;
67272;SDS011;54190;49.770;9.250;2022-10-17T15:49:14;5.60;;;3.47;;
67272;SDS011;54190;49.770;9.250;2022-10-17T15:51:42;6.23;;;3.50;;
67272;SDS011;54190;49.770;9.250;2022-10-17T15:54:07;9.47;;;3.57;;
67272;SDS011;54190;49.770;9.250;2022-10-17T15:56:36;4.80;;;3.10;;
67272;SDS011;54190;49.770;9.250;2022-10-17T15:59:05;7.80;;;3.50;;
67272;SDS011;54190;49.770;9.250;2022-10-17T16:01:38;11.20;;;3.90;;
67272;SDS011;54190;49.770;9.250;2022-10-17T16:04:04;7.73;;;3.60;;
67272;SDS011;54190;49.770;9.250;2022-10-17T16:06:30;7.73;;;3.60;;
67272;SDS011;54190;49.770;9.250;2022-10-17T16:08:56;7.80;;;3.40;;
67272;SDS011;54190;49.770;9.250;2022-10-17T16:11:26;6.77;;;3.70;;
67272;SDS011;54190;49.770;9.250;2022-10-17T16:13:56;10.33;;;3.50;;
67272;SDS011;54190;49.770;9.250;2022-10-17T16:16:24;11.83;;;3.80;;
67272;SDS011;54190;49.770;9.250;2022-10-17T16:18:50;9.40;;;4.40;;
67272;SDS011;54190;49.770;9.250;2022-10-17T16:21:16;10.77;;;3.90;;
67272;SDS011;54190;49.770;9.250;2022-10-17T16:23:43;7.27;;;3.87;;
67272;SDS011;54190;49.770;9.250;2022-10-17T16:26:09;13.13;;;3.87;;
67272;SDS011;54190;49.770;9.250;2022-10-17T16:28:38;8.53;;;3.80;;
67272;SDS011;54190;49.770;9.250;2022-10-17T16:31:09;7.33;;;3.30;;
67272;SDS011;54190;49.770;9.250;2022-10-17T16:33:59;7.03;;;4.00;;
67272;SDS011;54190;49.770;9.250;2022-10-17T16:36:25;7.73;;;4.10;;
67272;SDS011;54190;49.770;9.250;2022-10-17T16:38:51;7.90;;;3.63;;
67272;SDS011;54190;49.770;9.250;2022-10-17T16:41:22;9.40;;;3.97;;
67272;SDS011;54190;49.770;9.250;2022-10-17T16:43:56;10.43;;;3.70;;
67272;SDS011;54190;49.770;9.250;2022-10-17T16:46:24;8.70;;;3.80;;
67272;SDS011;54190;49.770;9.250;2022-10-17T16:48:51;9.27;;;4.13;;
67272;SDS011;54190;49.770;9.250;2022-10-17T16:51:18;7.10;;;3.80;;
67272;SDS011;54190;49.770;9.250;2022-10-17T16:53:45;10.50;;;4.00;;
67272;SDS011;54190;49.770;9.250;2022-10-17T16:56:13;9.40;;;4.30;;
67272;SDS011;54190;49.770;9.250;2022-10-17T16:58:42;8.67;;;4.00;;
67272;SDS011;54190;49.770;9.250;2022-10-17T17:01:12;14.70;;;4.50;;
67272;SDS011;54190;49.770;9.250;2022-10-17T17:03:43;11.20;;;4.57;;
67272;SDS011;54190;49.770;9.250;2022-10-17T17:06:18;6.63;;;4.60;;
67272;SDS011;54190;49.770;9.250;2022-10-17T17:08:48;7.20;;;4.30;;
67272;SDS011;54190;49.770;9.250;2022-10-17T17:11:15;7.77;;;4.30;;
67272;SDS011;54190;49.770;9.250;2022-10-17T17:13:42;8.40;;;4.10;;
67272;SDS011;54190;49.770;9.250;2022-10-17T17:16:14;10.97;;;4.30;;
67272;SDS011;54190;49.770;9.250;2022-10-17T17:18:42;9.03;;;4.10;;
67272;SDS011;54190;49.770;9.250;2022-10-17T17:21:10;9.30;;;3.63;;
67272;SDS011;54190;49.770;9.250;2022-10-17T17:23:37;5.83;;;3.60;;